sensor_id;sensor_type;location;lat;lon;timestamp;P1;durP1;ratioP1;P2;durP2;ratioP2
19193;SDS011;9729;52.296;13.260;2022-07-06T00:02:15;1.43;;;0.87;;
19193;SDS011;9729;52.296;13.260;2022-07-06T00:04:41;4.20;;;1.07;;
19193;SDS011;9729;52.296;13.260;2022-07-06T00:07:08;6.27;;;1.23;;
19193;SDS011;9729;52.296;13.260;2022-07-06T00:09:34;2.00;;;0.87;;
19193;SDS011;9729;52.296;13.260;2022-07-06T00:12:02;1.17;;;1.00;;
19193;SDS011;9729;52.296;13.260;2022-07-06T00:14:29;1.10;;;0.70;;
19193;SDS011;9729;52.296;13.260;2022-07-06T00:16:55;3.83;;;1.10;;
19193;SDS011;9729;52.296;13.260;2022-07-06T00:19:21;4.33;;;0.93;;
19193;SDS011;9729;52.296;13.260;2022-07-06T00:21:47;3.23;;;1.10;;
19193;SDS011;9729;52.296;13.260;2022-07-06T00:24:14;1.60;;;0.90;;
19193;SDS011;9729;52.296;13.260;2022-07-06T00:26:42;1.80;;;0.93;;
19193;SDS011;9729;52.296;13.260;2022-07-06T00:29:10;3.17;;;1.50;;
19193;SDS011;9729;52.296;13.260;2022-07-06T00:31:36;2.93;;;0.97;;
19193;SDS011;9729;52.296;13.260;2022-07-06T00:34:03;4.23;;;0.97;;
19193;SDS011;9729;52.296;13.260;2022-07-06T00:36:29;3.60;;;1.37;;
19193;SDS011;9729;52.296;13.260;2022-07-06T00:38:55;1.43;;;0.80;;
19193;SDS011;9729;52.296;13.260;2022-07-06T00:41:22;2.93;;;1.13;;
19193;SDS011;9729;52.296;13.260;2022-07-06T00:43:49;2.43;;;1.10;;
19193;SDS011;9729;52.296;13.260;2022-07-06T00:46:18;3.27;;;1.10;;
19193;SDS011;9729;52.296;13.260;2022-07-06T00:48:44;4.90;;;1.10;;
19193;SDS011;9729;52.296;13.260;2022-07-06T00:51:11;6.17;;;1.53;;
19193;SDS011;9729;52.296;13.260;2022-07-06T00:53:38;1.23;;;1.07;;
19193;SDS011;9729;52.296;13.260;2022-07-06T00:56:04;2.10;;;0.90;;
19193;SDS011;9729;52.296;13.260;2022-07-06T00:58:31;4.83;;;1.20;;
19193;SDS011;9729;52.296;13.260;2022-07-06T01:00:57;2.30;;;1.07;;
19193;SDS011;9729;52.296;13.260;2022-07-06T01:03:25;2.67;;;1.10;;
19193;SDS011;9729;52.296;13.260;2022-07-06T01:05:51;4.20;;;1.20;;
19193;SDS011;9729;52.296;13.260;2022-07-06T01:08:17;2.77;;;1.47;;
19193;SDS011;9729;52.296;13.260;2022-07-06T01:10:44;2.07;;;1.30;;
19193;SDS011;9729;52.296;13.260;2022-07-06T01:13:10;7.77;;;1.53;;
19193;SDS011;9729;52.296;13.260;2022-07-06T01:15:36;3.03;;;1.00;;
19193;SDS011;9729;52.296;13.260;2022-07-06T01:18:03;2.57;;;1.10;;
19193;SDS011;9729;52.296;13.260;2022-07-06T01:20:31;3.23;;;1.00;;
19193;SDS011;9729;52.296;13.260;2022-07-06T01:22:58;5.13;;;1.17;;
19193;SDS011;9729;52.296;13.260;2022-07-06T01:25:25;4.73;;;1.50;;
19193;SDS011;9729;52.296;13.260;2022-07-06T01:27:51;2.57;;;1.20;;
19193;SDS011;9729;52.296;13.260;2022-07-06T01:30:18;3.10;;;1.20;;
19193;SDS011;9729;52.296;13.260;2022-07-06T01:32:45;7.97;;;1.20;;
19193;SDS011;9729;52.296;13.260;2022-07-06T01:35:12;5.17;;;1.30;;
19193;SDS011;9729;52.296;13.260;2022-07-06T01:37:41;6.07;;;1.37;;
19193;SDS011;9729;52.296;13.260;2022-07-06T01:40:08;5.13;;;1.40;;
19193;SDS011;9729;52.296;13.260;2022-07-06T01:42:36;2.70;;;1.10;;
19193;SDS011;9729;52.296;13.260;2022-07-06T01:45:02;3.73;;;1.60;;
19193;SDS011;9729;52.296;13.260;2022-07-06T01:47:30;1.97;;;1.37;;
19193;SDS011;9729;52.296;13.260;2022-07-06T01:49:57;9.43;;;1.40;;
19193;SDS011;9729;52.296;13.260;2022-07-06T01:52:24;5.60;;;1.63;;
19193;SDS011;9729;52.296;13.260;2022-07-06T01:54:52;3.47;;;1.40;;
19193;SDS011;9729;52.296;13.260;2022-07-06T01:57:18;4.73;;;1.20;;
19193;SDS011;9729;52.296;13.260;2022-07-06T01:59:44;4.87;;;1.43;;
19193;SDS011;9729;52.296;13.260;2022-07-06T02:02:11;5.57;;;1.33;;
19193;SDS011;9729;52.296;13.260;2022-07-06T02:04:37;4.57;;;1.63;;
19193;SDS011;9729;52.296;13.260;2022-07-06T02:07:03;5.33;;;1.10;;
19193;SDS011;9729;52.296;13.260;2022-07-06T02:09:29;11.30;;;1.60;;
19193;SDS011;9729;52.296;13.260;2022-07-06T02:11:57;4.07;;;1.37;;
19193;SDS011;9729;52.296;13.260;2022-07-06T02:14:24;2.17;;;1.27;;
19193;SDS011;9729;52.296;13.260;2022-07-06T02:16:50;4.50;;;1.33;;
19193;SDS011;9729;52.296;13.260;2022-07-06T02:19:16;7.80;;;1.97;;
19193;SDS011;9729;52.296;13.260;2022-07-06T02:21:43;3.70;;;1.30;;
19193;SDS011;9729;52.296;13.260;2022-07-06T02:24:09;8.57;;;1.30;;
19193;SDS011;9729;52.296;13.260;2022-07-06T02:26:35;3.13;;;1.30;;
19193;SDS011;9729;52.296;13.260;2022-07-06T02:29:03;2.53;;;1.17;;
19193;SDS011;9729;52.296;13.260;2022-07-06T02:31:29;1.43;;;1.00;;
19193;SDS011;9729;52.296;13.260;2022-07-06T02:33:56;2.30;;;1.20;;
19193;SDS011;9729;52.296;13.260;2022-07-06T02:36:22;1.67;;;1.10;;
19193;SDS011;9729;52.296;13.260;2022-07-06T02:38:48;6.20;;;1.60;;
19193;SDS011;9729;52.296;13.260;2022-07-06T02:41:15;9.00;;;1.30;;
19193;SDS011;9729;52.296;13.260;2022-07-06T02:43:41;4.37;;;1.50;;
19193;SDS011;9729;52.296;13.260;2022-07-06T02:46:08;6.37;;;1.47;;
19193;SDS011;9729;52.296;13.260;2022-07-06T02:48:35;4.33;;;1.50;;
19193;SDS011;9729;52.296;13.260;2022-07-06T02:51:02;3.13;;;1.30;;
19193;SDS011;9729;52.296;13.260;2022-07-06T02:53:29;2.90;;;1.20;;
19193;SDS011;9729;52.296;13.260;2022-07-06T02:55:55;6.07;;;1.37;;
19193;SDS011;9729;52.296;13.260;2022-07-06T02:58:22;6.60;;;1.50;;
19193;SDS011;9729;52.296;13.260;2022-07-06T03:00:48;3.23;;;1.30;;
19193;SDS011;9729;52.296;13.260;2022-07-06T03:03:16;4.53;;;1.20;;
19193;SDS011;9729;52.296;13.260;2022-07-06T03:05:42;8.63;;;2.17;;
19193;SDS011;9729;52.296;13.260;2022-07-06T03:08:09;5.10;;;1.20;;
19193;SDS011;9729;52.296;13.260;2022-07-06T03:10:35;3.23;;;1.20;;
19193;SDS011;9729;52.296;13.260;2022-07-06T03:13:01;9.97;;;1.50;;
19193;SDS011;9729;52.296;13.260;2022-07-06T03:15:29;7.63;;;1.37;;
19193;SDS011;9729;52.296;13.260;2022-07-06T03:17:55;3.67;;;1.60;;
19193;SDS011;9729;52.296;13.260;2022-07-06T03:20:23;6.17;;;1.30;;
19193;SDS011;9729;52.296;13.260;2022-07-06T03:22:49;4.23;;;1.50;;
19193;SDS011;9729;52.296;13.260;2022-07-06T03:25:16;4.30;;;1.50;;
19193;SDS011;9729;52.296;13.260;2022-07-06T03:27:42;4.60;;;1.30;;
19193;SDS011;9729;52.296;13.260;2022-07-06T03:30:09;5.33;;;1.53;;
19193;SDS011;9729;52.296;13.260;2022-07-06T03:32:35;6.03;;;1.70;;
19193;SDS011;9729;52.296;13.260;2022-07-06T03:35:02;7.83;;;1.60;;
19193;SDS011;9729;52.296;13.260;2022-07-06T03:37:31;6.30;;;1.50;;
19193;SDS011;9729;52.296;13.260;2022-07-06T03:39:57;1.73;;;1.30;;
19193;SDS011;9729;52.296;13.260;2022-07-06T03:42:24;2.17;;;1.30;;
19193;SDS011;9729;52.296;13.260;2022-07-06T03:44:51;1.97;;;1.30;;
19193;SDS011;9729;52.296;13.260;2022-07-06T03:47:17;5.63;;;1.27;;
19193;SDS011;9729;52.296;13.260;2022-07-06T03:49:44;4.33;;;1.23;;
19193;SDS011;9729;52.296;13.260;2022-07-06T03:52:10;4.57;;;1.30;;
19193;SDS011;9729;52.296;13.260;2022-07-06T03:54:37;3.73;;;1.60;;
19193;SDS011;9729;52.296;13.260;2022-07-06T03:57:04;3.13;;;1.37;;
19193;SDS011;9729;52.296;13.260;2022-07-06T03:59:30;7.23;;;1.70;;
19193;SDS011;9729;52.296;13.260;2022-07-06T04:01:57;4.85;;;1.50;;
19193;SDS011;9729;52.296;13.260;2022-07-06T04:04:23;6.27;;;1.43;;
19193;SDS011;9729;52.296;13.260;2022-07-06T04:06:49;4.40;;;1.27;;
19193;SDS011;9729;52.296;13.260;2022-07-06T04:09:15;3.70;;;1.67;;
19193;SDS011;9729;52.296;13.260;2022-07-06T04:11:43;3.27;;;1.23;;
19193;SDS011;9729;52.296;13.260;2022-07-06T04:14:10;5.70;;;1.70;;
19193;SDS011;9729;52.296;13.260;2022-07-06T04:16:36;3.05;;;1.40;;
19193;SDS011;9729;52.296;13.260;2022-07-06T04:19:02;4.50;;;1.20;;
19193;SDS011;9729;52.296;13.260;2022-07-06T04:21:28;6.13;;;1.73;;
19193;SDS011;9729;52.296;13.260;2022-07-06T04:23:55;2.80;;;1.00;;
19193;SDS011;9729;52.296;13.260;2022-07-06T04:26:21;2.27;;;1.40;;
19193;SDS011;9729;52.296;13.260;2022-07-06T04:28:49;2.90;;;1.50;;
19193;SDS011;9729;52.296;13.260;2022-07-06T04:31:15;6.50;;;1.63;;
19193;SDS011;9729;52.296;13.260;2022-07-06T04:33:41;7.63;;;2.27;;
19193;SDS011;9729;52.296;13.260;2022-07-06T04:36:08;5.33;;;1.43;;
19193;SDS011;9729;52.296;13.260;2022-07-06T04:38:35;1.63;;;1.23;;
19193;SDS011;9729;52.296;13.260;2022-07-06T04:41:01;7.83;;;1.50;;
19193;SDS011;9729;52.296;13.260;2022-07-06T04:43:28;4.13;;;1.77;;
19193;SDS011;9729;52.296;13.260;2022-07-06T04:45:55;3.53;;;2.00;;
19193;SDS011;9729;52.296;13.260;2022-07-06T04:48:21;3.15;;;1.38;;
19193;SDS011;9729;52.296;13.260;2022-07-06T04:50:48;3.30;;;1.57;;
19193;SDS011;9729;52.296;13.260;2022-07-06T04:53:14;6.90;;;1.40;;
19193;SDS011;9729;52.296;13.260;2022-07-06T04:55:40;7.27;;;1.20;;
19193;SDS011;9729;52.296;13.260;2022-07-06T04:58:07;6.53;;;1.17;;
19193;SDS011;9729;52.296;13.260;2022-07-06T05:00:33;4.43;;;1.23;;
19193;SDS011;9729;52.296;13.260;2022-07-06T05:03:01;6.20;;;1.60;;
19193;SDS011;9729;52.296;13.260;2022-07-06T05:05:27;3.93;;;1.43;;
19193;SDS011;9729;52.296;13.260;2022-07-06T05:07:53;1.70;;;0.70;;
19193;SDS011;9729;52.296;13.260;2022-07-06T05:10:20;7.10;;;1.30;;
19193;SDS011;9729;52.296;13.260;2022-07-06T05:12:46;7.43;;;1.57;;
19193;SDS011;9729;52.296;13.260;2022-07-06T05:15:12;4.13;;;1.37;;
19193;SDS011;9729;52.296;13.260;2022-07-06T05:17:39;3.60;;;1.17;;
19193;SDS011;9729;52.296;13.260;2022-07-06T05:20:07;5.77;;;1.27;;
19193;SDS011;9729;52.296;13.260;2022-07-06T05:22:33;3.33;;;0.93;;
19193;SDS011;9729;52.296;13.260;2022-07-06T05:24:59;8.57;;;1.53;;
19193;SDS011;9729;52.296;13.260;2022-07-06T05:27:26;7.90;;;1.13;;
19193;SDS011;9729;52.296;13.260;2022-07-06T05:29:52;4.73;;;1.10;;
19193;SDS011;9729;52.296;13.260;2022-07-06T05:32:18;6.17;;;1.10;;
19193;SDS011;9729;52.296;13.260;2022-07-06T05:34:45;5.57;;;1.10;;
19193;SDS011;9729;52.296;13.260;2022-07-06T05:37:12;2.10;;;0.83;;
19193;SDS011;9729;52.296;13.260;2022-07-06T05:39:39;3.10;;;1.07;;
19193;SDS011;9729;52.296;13.260;2022-07-06T05:42:08;3.67;;;1.23;;
19193;SDS011;9729;52.296;13.260;2022-07-06T05:44:35;5.50;;;1.40;;
19193;SDS011;9729;52.296;13.260;2022-07-06T05:47:01;6.20;;;1.40;;
19193;SDS011;9729;52.296;13.260;2022-07-06T05:49:42;3.50;;;0.93;;
19193;SDS011;9729;52.296;13.260;2022-07-06T05:52:27;3.37;;;1.20;;
19193;SDS011;9729;52.296;13.260;2022-07-06T05:54:53;6.13;;;1.20;;
19193;SDS011;9729;52.296;13.260;2022-07-06T05:57:20;6.57;;;1.10;;
19193;SDS011;9729;52.296;13.260;2022-07-06T05:59:46;3.40;;;1.10;;
19193;SDS011;9729;52.296;13.260;2022-07-06T06:02:12;4.67;;;1.20;;
19193;SDS011;9729;52.296;13.260;2022-07-06T06:04:38;3.40;;;0.93;;
19193;SDS011;9729;52.296;13.260;2022-07-06T06:07:05;3.30;;;1.03;;
19193;SDS011;9729;52.296;13.260;2022-07-06T06:09:33;2.37;;;0.80;;
19193;SDS011;9729;52.296;13.260;2022-07-06T06:12:00;8.83;;;1.37;;
19193;SDS011;9729;52.296;13.260;2022-07-06T06:14:26;4.37;;;1.00;;
19193;SDS011;9729;52.296;13.260;2022-07-06T06:16:52;3.70;;;1.07;;
19193;SDS011;9729;52.296;13.260;2022-07-06T06:19:19;9.00;;;1.30;;
19193;SDS011;9729;52.296;13.260;2022-07-06T06:21:45;6.03;;;1.13;;
19193;SDS011;9729;52.296;13.260;2022-07-06T06:24:11;6.73;;;1.20;;
19193;SDS011;9729;52.296;13.260;2022-07-06T06:26:39;6.23;;;1.40;;
19193;SDS011;9729;52.296;13.260;2022-07-06T06:29:05;6.87;;;1.60;;
19193;SDS011;9729;52.296;13.260;2022-07-06T06:31:31;4.77;;;1.10;;
19193;SDS011;9729;52.296;13.260;2022-07-06T06:33:58;3.90;;;1.20;;
19193;SDS011;9729;52.296;13.260;2022-07-06T06:36:24;4.67;;;1.33;;
19193;SDS011;9729;52.296;13.260;2022-07-06T06:38:50;4.23;;;1.20;;
19193;SDS011;9729;52.296;13.260;2022-07-06T06:41:17;6.40;;;1.33;;
19193;SDS011;9729;52.296;13.260;2022-07-06T06:43:46;4.70;;;0.83;;
19193;SDS011;9729;52.296;13.260;2022-07-06T06:46:13;4.93;;;1.40;;
19193;SDS011;9729;52.296;13.260;2022-07-06T06:48:39;8.63;;;1.27;;
19193;SDS011;9729;52.296;13.260;2022-07-06T06:51:05;6.70;;;1.17;;
19193;SDS011;9729;52.296;13.260;2022-07-06T06:53:32;1.90;;;1.27;;
19193;SDS011;9729;52.296;13.260;2022-07-06T06:55:58;7.50;;;1.33;;
19193;SDS011;9729;52.296;13.260;2022-07-06T06:58:25;2.83;;;0.90;;
19193;SDS011;9729;52.296;13.260;2022-07-06T07:00:52;2.77;;;1.13;;
19193;SDS011;9729;52.296;13.260;2022-07-06T07:03:19;4.57;;;1.10;;
19193;SDS011;9729;52.296;13.260;2022-07-06T07:05:46;4.70;;;1.30;;
19193;SDS011;9729;52.296;13.260;2022-07-06T07:08:13;8.23;;;1.10;;
19193;SDS011;9729;52.296;13.260;2022-07-06T07:10:39;8.87;;;1.37;;
19193;SDS011;9729;52.296;13.260;2022-07-06T07:13:06;5.67;;;1.20;;
19193;SDS011;9729;52.296;13.260;2022-07-06T07:15:32;6.67;;;1.00;;
19193;SDS011;9729;52.296;13.260;2022-07-06T07:18:00;3.20;;;0.80;;
19193;SDS011;9729;52.296;13.260;2022-07-06T07:20:26;7.00;;;1.50;;
19193;SDS011;9729;52.296;13.260;2022-07-06T07:22:54;5.43;;;1.10;;
19193;SDS011;9729;52.296;13.260;2022-07-06T07:25:21;5.27;;;0.87;;
19193;SDS011;9729;52.296;13.260;2022-07-06T07:27:47;7.40;;;0.90;;
19193;SDS011;9729;52.296;13.260;2022-07-06T07:30:13;5.33;;;1.27;;
19193;SDS011;9729;52.296;13.260;2022-07-06T07:32:41;4.93;;;1.07;;
19193;SDS011;9729;52.296;13.260;2022-07-06T07:35:08;5.37;;;0.93;;
19193;SDS011;9729;52.296;13.260;2022-07-06T07:37:35;6.03;;;1.47;;
19193;SDS011;9729;52.296;13.260;2022-07-06T07:40:02;5.07;;;0.87;;
19193;SDS011;9729;52.296;13.260;2022-07-06T07:42:29;4.67;;;0.90;;
19193;SDS011;9729;52.296;13.260;2022-07-06T07:44:55;6.30;;;1.17;;
19193;SDS011;9729;52.296;13.260;2022-07-06T07:47:22;5.37;;;1.37;;
19193;SDS011;9729;52.296;13.260;2022-07-06T07:49:48;3.20;;;0.90;;
19193;SDS011;9729;52.296;13.260;2022-07-06T07:52:16;7.53;;;1.37;;
19193;SDS011;9729;52.296;13.260;2022-07-06T07:54:42;5.10;;;0.73;;
19193;SDS011;9729;52.296;13.260;2022-07-06T07:57:09;1.00;;;0.57;;
19193;SDS011;9729;52.296;13.260;2022-07-06T07:59:35;3.97;;;0.87;;
19193;SDS011;9729;52.296;13.260;2022-07-06T08:02:02;4.20;;;0.80;;
19193;SDS011;9729;52.296;13.260;2022-07-06T08:04:28;3.73;;;0.97;;
19193;SDS011;9729;52.296;13.260;2022-07-06T08:06:56;4.27;;;1.10;;
19193;SDS011;9729;52.296;13.260;2022-07-06T08:09:24;3.70;;;0.90;;
19193;SDS011;9729;52.296;13.260;2022-07-06T08:11:51;6.87;;;1.10;;
19193;SDS011;9729;52.296;13.260;2022-07-06T08:14:17;4.37;;;0.80;;
19193;SDS011;9729;52.296;13.260;2022-07-06T08:16:43;4.90;;;0.97;;
19193;SDS011;9729;52.296;13.260;2022-07-06T08:19:10;6.07;;;0.80;;
19193;SDS011;9729;52.296;13.260;2022-07-06T08:21:39;4.00;;;1.10;;
19193;SDS011;9729;52.296;13.260;2022-07-06T08:24:06;4.33;;;1.20;;
19193;SDS011;9729;52.296;13.260;2022-07-06T08:26:34;5.57;;;1.00;;
19193;SDS011;9729;52.296;13.260;2022-07-06T08:29:01;8.67;;;1.40;;
19193;SDS011;9729;52.296;13.260;2022-07-06T08:31:27;3.93;;;1.03;;
19193;SDS011;9729;52.296;13.260;2022-07-06T08:33:54;2.13;;;0.80;;
19193;SDS011;9729;52.296;13.260;2022-07-06T08:36:21;2.40;;;1.00;;
19193;SDS011;9729;52.296;13.260;2022-07-06T08:38:48;6.10;;;0.90;;
19193;SDS011;9729;52.296;13.260;2022-07-06T08:41:21;3.23;;;0.80;;
19193;SDS011;9729;52.296;13.260;2022-07-06T08:43:51;2.40;;;0.83;;
19193;SDS011;9729;52.296;13.260;2022-07-06T08:46:18;6.80;;;1.23;;
19193;SDS011;9729;52.296;13.260;2022-07-06T08:48:44;4.17;;;1.10;;
19193;SDS011;9729;52.296;13.260;2022-07-06T08:51:11;3.13;;;0.60;;
19193;SDS011;9729;52.296;13.260;2022-07-06T08:53:39;3.87;;;0.90;;
19193;SDS011;9729;52.296;13.260;2022-07-06T08:56:06;2.93;;;0.73;;
19193;SDS011;9729;52.296;13.260;2022-07-06T08:58:32;5.23;;;1.40;;
19193;SDS011;9729;52.296;13.260;2022-07-06T09:01:00;3.17;;;0.70;;
19193;SDS011;9729;52.296;13.260;2022-07-06T09:03:27;5.10;;;1.00;;
19193;SDS011;9729;52.296;13.260;2022-07-06T09:05:54;5.10;;;0.87;;
19193;SDS011;9729;52.296;13.260;2022-07-06T09:08:24;5.20;;;0.97;;
19193;SDS011;9729;52.296;13.260;2022-07-06T09:10:52;3.83;;;0.70;;
19193;SDS011;9729;52.296;13.260;2022-07-06T09:13:19;4.90;;;1.23;;
19193;SDS011;9729;52.296;13.260;2022-07-06T09:15:45;6.33;;;1.10;;
19193;SDS011;9729;52.296;13.260;2022-07-06T09:18:13;2.87;;;0.60;;
19193;SDS011;9729;52.296;13.260;2022-07-06T09:20:40;5.60;;;1.00;;
19193;SDS011;9729;52.296;13.260;2022-07-06T09:23:07;3.27;;;0.90;;
19193;SDS011;9729;52.296;13.260;2022-07-06T09:25:33;5.20;;;0.90;;
19193;SDS011;9729;52.296;13.260;2022-07-06T09:28:00;7.40;;;0.90;;
19193;SDS011;9729;52.296;13.260;2022-07-06T09:30:27;2.97;;;0.80;;
19193;SDS011;9729;52.296;13.260;2022-07-06T09:32:55;4.13;;;0.50;;
19193;SDS011;9729;52.296;13.260;2022-07-06T09:35:24;5.30;;;0.80;;
19193;SDS011;9729;52.296;13.260;2022-07-06T09:37:59;2.47;;;0.90;;
19193;SDS011;9729;52.296;13.260;2022-07-06T09:40:26;4.50;;;0.60;;
19193;SDS011;9729;52.296;13.260;2022-07-06T09:43:06;4.60;;;0.77;;
19193;SDS011;9729;52.296;13.260;2022-07-06T09:45:40;3.83;;;0.90;;
19193;SDS011;9729;52.296;13.260;2022-07-06T09:48:08;1.73;;;0.77;;
19193;SDS011;9729;52.296;13.260;2022-07-06T09:50:40;2.90;;;0.90;;
19193;SDS011;9729;52.296;13.260;2022-07-06T09:53:08;1.23;;;0.63;;
19193;SDS011;9729;52.296;13.260;2022-07-06T09:55:35;4.13;;;1.50;;
19193;SDS011;9729;52.296;13.260;2022-07-06T09:58:02;4.33;;;0.73;;
19193;SDS011;9729;52.296;13.260;2022-07-06T10:00:29;4.30;;;0.70;;
19193;SDS011;9729;52.296;13.260;2022-07-06T10:02:55;5.00;;;0.87;;
19193;SDS011;9729;52.296;13.260;2022-07-06T10:05:22;2.70;;;0.70;;
19193;SDS011;9729;52.296;13.260;2022-07-06T10:07:53;3.93;;;0.57;;
19193;SDS011;9729;52.296;13.260;2022-07-06T10:10:22;2.07;;;0.60;;
19193;SDS011;9729;52.296;13.260;2022-07-06T10:12:50;2.33;;;0.40;;
19193;SDS011;9729;52.296;13.260;2022-07-06T10:15:17;2.07;;;0.77;;
19193;SDS011;9729;52.296;13.260;2022-07-06T10:17:45;1.53;;;0.50;;
19193;SDS011;9729;52.296;13.260;2022-07-06T10:20:13;4.03;;;0.80;;
19193;SDS011;9729;52.296;13.260;2022-07-06T10:22:39;5.03;;;0.60;;
19193;SDS011;9729;52.296;13.260;2022-07-06T10:25:07;6.80;;;1.00;;
19193;SDS011;9729;52.296;13.260;2022-07-06T10:27:35;2.30;;;0.57;;
19193;SDS011;9729;52.296;13.260;2022-07-06T10:30:02;2.00;;;0.60;;
19193;SDS011;9729;52.296;13.260;2022-07-06T10:32:30;3.00;;;0.43;;
19193;SDS011;9729;52.296;13.260;2022-07-06T10:34:56;2.83;;;0.77;;
19193;SDS011;9729;52.296;13.260;2022-07-06T10:37:23;0.90;;;0.40;;
19193;SDS011;9729;52.296;13.260;2022-07-06T10:39:51;2.80;;;0.60;;
19193;SDS011;9729;52.296;13.260;2022-07-06T10:42:40;1.50;;;0.70;;
19193;SDS011;9729;52.296;13.260;2022-07-06T10:45:08;0.97;;;0.50;;
19193;SDS011;9729;52.296;13.260;2022-07-06T10:47:35;2.57;;;0.47;;
19193;SDS011;9729;52.296;13.260;2022-07-06T10:50:02;0.37;;;0.30;;
19193;SDS011;9729;52.296;13.260;2022-07-06T10:55:29;1.33;;;0.40;;
19193;SDS011;9729;52.296;13.260;2022-07-06T10:57:58;2.27;;;0.33;;
19193;SDS011;9729;52.296;13.260;2022-07-06T11:00:25;4.53;;;0.60;;
19193;SDS011;9729;52.296;13.260;2022-07-06T11:02:51;4.90;;;0.43;;
19193;SDS011;9729;52.296;13.260;2022-07-06T11:08:08;2.50;;;0.50;;
19193;SDS011;9729;52.296;13.260;2022-07-06T11:10:45;5.80;;;1.33;;
19193;SDS011;9729;52.296;13.260;2022-07-06T11:13:25;3.20;;;0.97;;
19193;SDS011;9729;52.296;13.260;2022-07-06T11:15:52;2.77;;;0.53;;
19193;SDS011;9729;52.296;13.260;2022-07-06T11:18:26;3.90;;;0.93;;
19193;SDS011;9729;52.296;13.260;2022-07-06T11:23:40;2.43;;;0.77;;
19193;SDS011;9729;52.296;13.260;2022-07-06T11:26:07;2.60;;;0.60;;
19193;SDS011;9729;52.296;13.260;2022-07-06T11:28:35;7.30;;;0.63;;
19193;SDS011;9729;52.296;13.260;2022-07-06T11:31:02;1.43;;;0.60;;
19193;SDS011;9729;52.296;13.260;2022-07-06T11:33:28;2.80;;;0.73;;
19193;SDS011;9729;52.296;13.260;2022-07-06T11:38:39;2.73;;;0.60;;
19193;SDS011;9729;52.296;13.260;2022-07-06T11:41:06;5.10;;;0.93;;
19193;SDS011;9729;52.296;13.260;2022-07-06T11:43:32;1.83;;;0.47;;
19193;SDS011;9729;52.296;13.260;2022-07-06T11:46:00;5.03;;;1.00;;
19193;SDS011;9729;52.296;13.260;2022-07-06T11:48:26;2.23;;;0.70;;
19193;SDS011;9729;52.296;13.260;2022-07-06T11:50:59;4.17;;;0.80;;
19193;SDS011;9729;52.296;13.260;2022-07-06T11:53:25;3.23;;;0.83;;
19193;SDS011;9729;52.296;13.260;2022-07-06T11:55:52;2.43;;;0.40;;
19193;SDS011;9729;52.296;13.260;2022-07-06T11:58:19;1.67;;;0.40;;
19193;SDS011;9729;52.296;13.260;2022-07-06T12:03:40;2.63;;;0.90;;
19193;SDS011;9729;52.296;13.260;2022-07-06T12:06:12;1.53;;;0.50;;
19193;SDS011;9729;52.296;13.260;2022-07-06T12:08:43;3.00;;;0.50;;
19193;SDS011;9729;52.296;13.260;2022-07-06T12:11:10;3.60;;;0.57;;
19193;SDS011;9729;52.296;13.260;2022-07-06T12:13:43;3.10;;;0.50;;
19193;SDS011;9729;52.296;13.260;2022-07-06T12:16:10;3.50;;;0.43;;
19193;SDS011;9729;52.296;13.260;2022-07-06T12:18:37;2.47;;;0.80;;
19193;SDS011;9729;52.296;13.260;2022-07-06T12:21:06;6.33;;;0.70;;
19193;SDS011;9729;52.296;13.260;2022-07-06T12:23:43;4.93;;;0.40;;
19193;SDS011;9729;52.296;13.260;2022-07-06T12:26:11;6.60;;;0.63;;
19193;SDS011;9729;52.296;13.260;2022-07-06T12:28:38;0.85;;;0.30;;
19193;SDS011;9729;52.296;13.260;2022-07-06T12:31:04;2.63;;;0.70;;
19193;SDS011;9729;52.296;13.260;2022-07-06T12:33:31;1.10;;;0.40;;
19193;SDS011;9729;52.296;13.260;2022-07-06T12:36:09;1.53;;;0.40;;
19193;SDS011;9729;52.296;13.260;2022-07-06T12:38:36;4.93;;;0.80;;
19193;SDS011;9729;52.296;13.260;2022-07-06T12:41:10;2.83;;;0.37;;
19193;SDS011;9729;52.296;13.260;2022-07-06T12:43:37;5.30;;;0.50;;
19193;SDS011;9729;52.296;13.260;2022-07-06T12:46:23;1.80;;;0.30;;
19193;SDS011;9729;52.296;13.260;2022-07-06T12:48:54;3.50;;;0.80;;
19193;SDS011;9729;52.296;13.260;2022-07-06T12:51:22;4.73;;;0.40;;
19193;SDS011;9729;52.296;13.260;2022-07-06T12:53:49;1.10;;;0.40;;
19193;SDS011;9729;52.296;13.260;2022-07-06T12:56:15;4.07;;;0.30;;
19193;SDS011;9729;52.296;13.260;2022-07-06T12:58:55;5.20;;;0.50;;
19193;SDS011;9729;52.296;13.260;2022-07-06T13:01:22;0.53;;;0.23;;
19193;SDS011;9729;52.296;13.260;2022-07-06T13:03:53;4.23;;;0.47;;
19193;SDS011;9729;52.296;13.260;2022-07-06T13:06:27;2.10;;;0.43;;
19193;SDS011;9729;52.296;13.260;2022-07-06T13:08:55;1.73;;;0.33;;
19193;SDS011;9729;52.296;13.260;2022-07-06T13:11:21;4.53;;;0.40;;
19193;SDS011;9729;52.296;13.260;2022-07-06T13:13:48;0.50;;;0.30;;
19193;SDS011;9729;52.296;13.260;2022-07-06T13:16:14;2.77;;;0.50;;
19193;SDS011;9729;52.296;13.260;2022-07-06T13:18:41;2.63;;;0.47;;
19193;SDS011;9729;52.296;13.260;2022-07-06T13:21:07;2.93;;;0.70;;
19193;SDS011;9729;52.296;13.260;2022-07-06T13:23:35;1.90;;;0.80;;
19193;SDS011;9729;52.296;13.260;2022-07-06T13:26:02;3.83;;;1.17;;
19193;SDS011;9729;52.296;13.260;2022-07-06T13:28:28;4.10;;;0.90;;
19193;SDS011;9729;52.296;13.260;2022-07-06T13:30:54;2.70;;;0.63;;
19193;SDS011;9729;52.296;13.260;2022-07-06T13:33:22;8.17;;;1.00;;
19193;SDS011;9729;52.296;13.260;2022-07-06T13:35:48;1.20;;;0.60;;
19193;SDS011;9729;52.296;13.260;2022-07-06T13:38:14;2.60;;;0.53;;
19193;SDS011;9729;52.296;13.260;2022-07-06T13:40:42;2.30;;;0.67;;
19193;SDS011;9729;52.296;13.260;2022-07-06T13:43:08;1.13;;;0.50;;
19193;SDS011;9729;52.296;13.260;2022-07-06T13:45:35;12.33;;;1.50;;
19193;SDS011;9729;52.296;13.260;2022-07-06T13:48:02;5.90;;;0.80;;
19193;SDS011;9729;52.296;13.260;2022-07-06T13:50:28;3.80;;;0.70;;
19193;SDS011;9729;52.296;13.260;2022-07-06T13:52:57;4.20;;;0.63;;
19193;SDS011;9729;52.296;13.260;2022-07-06T13:55:23;1.30;;;0.50;;
19193;SDS011;9729;52.296;13.260;2022-07-06T13:57:52;0.90;;;0.30;;
19193;SDS011;9729;52.296;13.260;2022-07-06T14:00:18;7.37;;;0.63;;
19193;SDS011;9729;52.296;13.260;2022-07-06T14:02:45;3.13;;;0.40;;
19193;SDS011;9729;52.296;13.260;2022-07-06T14:05:11;3.00;;;0.40;;
19193;SDS011;9729;52.296;13.260;2022-07-06T14:07:37;2.33;;;0.70;;
19193;SDS011;9729;52.296;13.260;2022-07-06T14:10:04;5.23;;;0.60;;
19193;SDS011;9729;52.296;13.260;2022-07-06T14:12:31;6.57;;;0.93;;
19193;SDS011;9729;52.296;13.260;2022-07-06T14:14:59;4.53;;;0.80;;
19193;SDS011;9729;52.296;13.260;2022-07-06T14:17:25;1.60;;;0.47;;
19193;SDS011;9729;52.296;13.260;2022-07-06T14:19:52;3.13;;;0.70;;
19193;SDS011;9729;52.296;13.260;2022-07-06T14:22:18;3.00;;;0.67;;
19193;SDS011;9729;52.296;13.260;2022-07-06T14:24:44;3.37;;;0.60;;
19193;SDS011;9729;52.296;13.260;2022-07-06T14:27:11;4.03;;;0.70;;
19193;SDS011;9729;52.296;13.260;2022-07-06T14:29:37;1.80;;;0.80;;
19193;SDS011;9729;52.296;13.260;2022-07-06T14:32:05;4.03;;;0.80;;
19193;SDS011;9729;52.296;13.260;2022-07-06T14:34:32;6.60;;;0.80;;
19193;SDS011;9729;52.296;13.260;2022-07-06T14:36:58;5.03;;;0.87;;
19193;SDS011;9729;52.296;13.260;2022-07-06T14:39:24;2.93;;;0.53;;
19193;SDS011;9729;52.296;13.260;2022-07-06T14:41:51;2.30;;;0.80;;
19193;SDS011;9729;52.296;13.260;2022-07-06T14:44:17;8.53;;;0.70;;
19193;SDS011;9729;52.296;13.260;2022-07-06T14:46:43;1.33;;;0.53;;
19193;SDS011;9729;52.296;13.260;2022-07-06T14:49:11;6.77;;;0.97;;
19193;SDS011;9729;52.296;13.260;2022-07-06T14:51:38;2.77;;;0.40;;
19193;SDS011;9729;52.296;13.260;2022-07-06T14:54:05;1.50;;;0.53;;
19193;SDS011;9729;52.296;13.260;2022-07-06T14:56:31;6.20;;;0.83;;
19193;SDS011;9729;52.296;13.260;2022-07-06T14:58:58;2.17;;;0.37;;
19193;SDS011;9729;52.296;13.260;2022-07-06T15:01:24;2.73;;;0.70;;
19193;SDS011;9729;52.296;13.260;2022-07-06T15:03:50;4.47;;;0.60;;